createdAt,value
2022-09-28T00:01:49.054Z,61.99
2022-09-28T00:04:53.496Z,61.86
2022-09-28T00:07:58.782Z,61.43
2022-09-28T00:11:06.506Z,60.90
2022-09-28T00:14:13.967Z,60.07
2022-09-28T00:17:21.369Z,59.47
2022-09-28T00:20:25.666Z,58.30
2022-09-28T00:23:30.240Z,56.82
2022-09-28T00:26:35.366Z,56.37
2022-09-28T00:29:39.965Z,56.55
2022-09-28T00:32:44.790Z,55.70
2022-09-28T00:36:00.173Z,55.21
2022-09-28T00:39:16.099Z,54.59
2022-09-28T00:42:27.416Z,55.02
2022-09-28T00:45:36.566Z,53.65
2022-09-28T00:48:47.187Z,53.13
2022-09-28T00:51:53.446Z,51.92
2022-09-28T00:55:00.889Z,51.90
2022-09-28T00:58:12.586Z,51.89
2022-09-28T01:01:17.988Z,51.41
2022-09-28T01:04:26.899Z,50.14
2022-09-28T01:07:35.926Z,50.65
2022-09-28T01:10:42.009Z,50.78
2022-09-28T01:13:53.005Z,49.85
2022-09-28T01:17:26.832Z,50.63
2022-09-28T01:20:58.055Z,51.10
2022-09-28T01:24:41.696Z,52.46
2022-09-28T01:28:12.596Z,50.94
2022-09-28T01:31:18.770Z,51.31
2022-09-28T01:34:36.624Z,50.71
2022-09-28T01:37:54.436Z,51.13
2022-09-28T01:41:03.542Z,49.68
2022-09-28T01:44:11.965Z,50.31
2022-09-28T01:47:23.494Z,50.34
2022-09-28T01:50:32.266Z,50.81
2022-09-28T01:53:42.605Z,50.19
2022-09-28T01:57:10.636Z,51.85
2022-09-28T02:00:17.284Z,51.92
2022-09-28T02:03:35.004Z,51.40
2022-09-28T02:06:54.179Z,51.82
2022-09-28T02:10:10.530Z,51.17
2022-09-28T02:13:27.174Z,51.56
2022-09-28T02:16:45.218Z,51.81
2022-09-28T02:19:51.880Z,51.97
2022-09-28T02:22:58.708Z,51.07
2022-09-28T02:26:09.022Z,50.72
2022-09-28T02:29:14.070Z,51.70
2022-09-28T02:32:22.845Z,52.03
2022-09-28T02:35:27.927Z,52.78
2022-09-28T02:38:34.122Z,53.17
2022-09-28T02:41:57.632Z,54.15
2022-09-28T02:45:38.156Z,55.32
2022-09-28T02:49:24.958Z,56.40
2022-09-28T02:52:48.260Z,55.71
2022-09-28T02:56:24.445Z,56.59
2022-09-28T03:00:09.554Z,57.97
2022-09-28T03:03:23.394Z,58.65
2022-09-28T03:07:09.946Z,59.80
2022-09-28T03:10:20.065Z,58.70
2022-09-28T03:13:29.309Z,59.93
2022-09-28T03:16:33.869Z,58.82
2022-09-28T03:19:41.598Z,58.73
2022-09-28T03:23:00.500Z,58.54
2022-09-28T03:26:20.675Z,58.39
2022-09-28T03:29:25.316Z,57.48
2022-09-28T03:32:35.788Z,57.92
2022-09-28T03:35:41.987Z,57.54
2022-09-28T03:38:49.715Z,57.39
2022-09-28T03:41:54.251Z,57.28
2022-09-28T03:44:59.115Z,57.38
2022-09-28T03:48:03.612Z,57.39
2022-09-28T03:51:15.061Z,57.35
2022-09-28T03:54:22.272Z,56.95
2022-09-28T03:57:26.785Z,56.76
2022-09-28T04:00:31.318Z,56.81
2022-09-28T04:03:39.445Z,55.81
2022-09-28T04:06:47.374Z,55.68
2022-09-28T04:09:52.132Z,55.91
2022-09-28T04:13:00.138Z,56.28
2022-09-28T04:16:13.455Z,57.10
2022-09-28T04:19:24.776Z,56.73
2022-09-28T04:22:45.379Z,57.49
2022-09-28T04:25:55.536Z,58.63
2022-09-28T04:29:17.359Z,57.63
2022-09-28T04:32:35.759Z,56.77
2022-09-28T04:35:40.159Z,56.46
2022-09-28T04:38:53.747Z,57.16
2022-09-28T04:42:00.788Z,57.73
2022-09-28T04:45:05.699Z,58.53
2022-09-28T04:48:14.030Z,58.05
2022-09-28T04:51:47.613Z,57.83
2022-09-28T04:54:52.640Z,57.92
2022-09-28T04:57:57.318Z,58.11
2022-09-28T05:01:04.256Z,57.82
2022-09-28T05:04:37.607Z,57.79
2022-09-28T05:07:48.652Z,56.96
2022-09-28T05:11:08.070Z,56.68
2022-09-28T05:14:13.612Z,55.98
2022-09-28T05:17:20.348Z,56.29
2022-09-28T05:20:56.848Z,55.62
2022-09-28T05:24:01.688Z,55.67
2022-09-28T05:27:08.554Z,55.51
2022-09-28T05:30:13.518Z,55.05
2022-09-28T05:33:37.199Z,55.49
2022-09-28T05:36:48.421Z,56.02
2022-09-28T05:39:58.332Z,55.67
2022-09-28T05:43:04.009Z,55.91
2022-09-28T05:46:09.822Z,55.84
2022-09-28T05:49:18.113Z,55.92
2022-09-28T05:52:24.375Z,56.04
2022-09-28T05:55:29.195Z,56.07
2022-09-28T05:58:33.604Z,56.15
2022-09-28T06:01:38.288Z,56.49
2022-09-28T06:04:45.982Z,56.44
2022-09-28T06:07:50.523Z,56.86
2022-09-28T06:11:02.357Z,57.11
2022-09-28T06:14:10.012Z,57.50
2022-09-28T06:17:14.704Z,57.86
2022-09-28T06:20:22.378Z,58.33
2022-09-28T06:23:46.869Z,58.53
2022-09-28T06:26:54.508Z,58.82
2022-09-28T06:30:01.640Z,60.39
2022-09-28T09:07:27.269Z,57.85
2022-09-28T09:11:15.148Z,59.40
2022-09-28T09:14:55.318Z,55.82
2022-09-28T09:18:20.112Z,56.48
2022-09-28T09:21:42.805Z,57.08
2022-09-28T09:25:26.280Z,54.65
2022-09-28T09:29:01.939Z,56.25
2022-09-28T09:32:38.713Z,57.06
2022-09-28T09:35:46.811Z,57.26
2022-09-28T09:39:45.090Z,56.46
2022-09-28T09:43:20.105Z,56.28
2022-09-28T09:46:43.463Z,57.62
2022-09-28T09:50:31.484Z,56.89
2022-09-28T09:54:17.474Z,56.67
2022-09-28T09:57:44.089Z,56.90
2022-09-28T10:01:19.090Z,57.03
2022-09-28T10:04:49.312Z,57.07
2022-09-28T10:08:16.482Z,56.58
2022-09-28T10:11:33.439Z,56.47
2022-09-28T10:14:37.957Z,57.18
2022-09-28T10:17:45.745Z,56.96
2022-09-28T10:21:08.568Z,56.83
2022-09-28T10:25:01.422Z,57.35
2022-09-28T10:28:09.701Z,57.36
2022-09-28T10:31:40.748Z,57.54
2022-09-28T10:34:53.455Z,58.28
2022-09-28T10:38:09.187Z,58.88
2022-09-28T10:41:23.782Z,59.04
2022-09-28T10:44:36.696Z,59.50
2022-09-28T10:47:56.743Z,59.89
2022-09-28T10:51:07.276Z,59.63
2022-09-28T10:54:32.481Z,60.18
2022-09-28T10:57:40.740Z,60.62
2022-09-28T11:00:47.361Z,61.51
2022-09-28T11:04:03.258Z,61.88
2022-09-28T11:07:19.399Z,60.82
2022-09-28T11:10:33.521Z,62.44
2022-09-28T11:14:02.100Z,62.81
2022-09-28T11:17:19.955Z,62.97
2022-09-28T11:20:28.702Z,62.88
2022-09-28T11:23:36.952Z,63.52
2022-09-28T11:27:00.941Z,63.59
2022-09-28T11:30:24.607Z,63.46
2022-09-28T11:34:54.923Z,63.55
2022-09-28T11:38:19.433Z,64.08
2022-09-28T11:42:18.790Z,64.83
2022-09-28T11:45:51.063Z,64.97
2022-09-28T11:49:21.888Z,65.71
2022-09-28T11:52:53.041Z,65.90
2022-09-28T11:56:09.100Z,66.21
2022-09-28T11:59:16.821Z,67.02
2022-09-28T12:02:41.087Z,65.70
2022-09-28T12:06:02.066Z,65.30
2022-09-28T12:09:19.056Z,66.93
2022-09-28T12:12:41.563Z,66.83
2022-09-28T12:16:23.435Z,66.96
2022-09-28T12:19:31.963Z,66.88
2022-09-28T12:23:04.867Z,66.88
2022-09-28T12:26:53.200Z,67.58
2022-09-28T12:30:21.262Z,67.50
2022-09-28T12:33:26.092Z,66.73
2022-09-28T12:37:02.857Z,68.52
2022-09-28T12:40:23.298Z,69.06
2022-09-28T12:44:06.848Z,71.42
2022-09-28T12:47:26.241Z,70.93
2022-09-28T12:51:08.787Z,73.09
2022-09-28T12:54:28.398Z,72.48
2022-09-28T12:57:47.632Z,72.98
2022-09-28T13:01:22.964Z,72.79
2022-09-28T13:05:04.702Z,73.06
2022-09-28T13:08:32.555Z,72.77
2022-09-28T13:11:55.629Z,72.25
2022-09-28T13:15:06.428Z,71.65
2022-09-28T13:18:19.032Z,72.42
2022-09-28T13:21:32.558Z,72.21
2022-09-28T13:24:45.142Z,72.12
2022-09-28T13:27:56.106Z,71.71
2022-09-28T13:31:03.070Z,72.54
2022-09-28T13:34:11.875Z,72.47
2022-09-28T13:37:22.553Z,72.61
2022-09-28T13:41:05.264Z,72.54
2022-09-28T13:44:17.440Z,72.51
2022-09-28T13:47:43.453Z,74.34
2022-09-28T13:51:18.790Z,73.48
2022-09-28T13:55:07.085Z,72.70
2022-09-28T13:58:27.489Z,72.23
2022-09-28T14:01:42.713Z,71.91
2022-09-28T14:05:01.366Z,73.83
2022-09-28T14:08:09.970Z,72.75
2022-09-28T14:11:26.200Z,73.13
2022-09-28T14:14:52.284Z,72.79
2022-09-28T14:18:11.436Z,73.96
2022-09-28T14:21:18.500Z,75.22
2022-09-28T14:25:04.159Z,74.66
2022-09-28T14:28:23.986Z,75.35
2022-09-28T14:31:30.431Z,76.39
2022-09-28T14:34:48.371Z,76.40
2022-09-28T14:38:22.411Z,78.00
2022-09-28T14:41:35.405Z,77.96
2022-09-28T14:45:06.659Z,77.95
2022-09-28T14:48:21.301Z,77.54
2022-09-28T14:51:31.004Z,76.67
2022-09-28T14:54:47.099Z,76.78
2022-09-28T14:57:57.404Z,75.99
2022-09-28T15:01:06.901Z,76.08
2022-09-28T15:04:13.826Z,76.33
2022-09-28T15:07:30.543Z,75.81
2022-09-28T15:10:40.033Z,75.57
2022-09-28T15:13:45.437Z,75.19
2022-09-28T15:16:51.301Z,75.00
2022-09-28T15:20:14.175Z,75.41
2022-09-28T15:23:31.421Z,76.25
2022-09-28T15:26:36.958Z,75.66
2022-09-28T15:29:41.818Z,75.68
2022-09-28T15:32:46.682Z,75.69
2022-09-28T15:36:02.935Z,76.54
2022-09-28T15:39:23.642Z,76.49
2022-09-28T15:42:28.480Z,75.77
2022-09-28T15:45:38.908Z,75.07
2022-09-28T15:49:02.473Z,74.98
2022-09-28T15:52:07.544Z,74.93
2022-09-28T15:55:26.713Z,75.89
2022-09-28T15:58:31.423Z,75.07
2022-09-28T16:01:44.553Z,75.52
2022-09-28T16:04:56.334Z,75.84
2022-09-28T16:08:05.258Z,75.78
2022-09-28T16:11:37.803Z,76.07
2022-09-28T16:14:42.231Z,76.06
2022-09-28T16:17:52.961Z,76.54
2022-09-28T16:21:18.905Z,75.95
2022-09-28T16:24:31.257Z,76.46
2022-09-28T16:27:46.479Z,76.93
2022-09-28T16:31:03.265Z,76.84
2022-09-28T16:34:20.703Z,76.01
2022-09-28T16:37:32.866Z,76.13
2022-09-28T16:40:47.001Z,76.70
2022-09-28T16:43:57.728Z,76.56
2022-09-28T16:47:02.233Z,77.13
2022-09-28T16:50:11.489Z,77.22
2022-09-28T16:53:36.323Z,77.73
2022-09-28T16:56:42.292Z,77.71
2022-09-28T16:59:46.542Z,77.41
2022-09-28T17:02:51.965Z,76.98
2022-09-28T17:05:56.797Z,76.83
2022-09-28T17:09:07.617Z,76.81
2022-09-28T17:12:23.693Z,76.86
2022-09-28T17:15:28.172Z,76.79
2022-09-28T17:18:33.140Z,76.92
2022-09-28T17:21:37.733Z,76.70
2022-09-28T17:24:42.350Z,77.15
2022-09-28T17:27:50.552Z,76.81
2022-09-28T17:30:55.368Z,76.55
2022-09-28T17:34:02.865Z,77.07
2022-09-28T17:37:07.623Z,76.96
2022-09-28T17:40:25.065Z,76.66
2022-09-28T17:43:29.598Z,76.69
2022-09-28T17:46:37.282Z,76.04
2022-09-28T17:49:45.117Z,76.11
2022-09-28T17:52:53.212Z,75.88
2022-09-28T17:55:57.631Z,75.84
2022-09-28T17:59:04.645Z,76.26
2022-09-28T18:02:13.121Z,76.46
2022-09-28T18:05:17.797Z,76.27
2022-09-28T18:08:23.106Z,76.44
2022-09-28T18:11:28.669Z,76.37
2022-09-28T18:14:33.233Z,76.87
2022-09-28T18:17:38.195Z,77.20
2022-09-28T18:20:42.975Z,77.87
2022-09-28T18:23:47.270Z,77.57
2022-09-28T18:26:51.882Z,77.96
2022-09-28T18:29:56.506Z,78.49
2022-09-28T18:33:01.152Z,78.67
2022-09-28T18:36:07.041Z,78.58
2022-09-28T18:39:11.737Z,77.79
2022-09-28T18:42:16.439Z,77.43
2022-09-28T18:45:21.097Z,77.87
2022-09-28T18:48:28.547Z,78.55
2022-09-28T18:51:32.897Z,78.56
2022-09-28T18:54:37.403Z,78.10
2022-09-28T18:57:42.277Z,78.50
2022-09-28T19:00:47.278Z,78.91
2022-09-28T19:03:51.929Z,79.17
2022-09-28T19:06:59.692Z,80.20
2022-09-28T19:10:04.384Z,80.63
2022-09-28T19:13:08.895Z,79.23
2022-09-28T19:16:18.926Z,80.46
2022-09-28T19:19:23.366Z,79.92
2022-09-28T19:22:28.026Z,79.96
2022-09-28T19:25:32.810Z,79.60
2022-09-28T19:28:37.478Z,79.97
2022-09-28T19:31:44.063Z,79.30
2022-09-28T19:34:49.486Z,78.70
2022-09-28T19:37:54.648Z,79.40
2022-09-28T19:41:00.159Z,79.74
2022-09-28T19:44:07.362Z,79.72
2022-09-28T19:47:13.859Z,80.50
2022-09-28T19:50:18.069Z,79.95
2022-09-28T19:53:22.570Z,79.13
2022-09-28T19:56:27.132Z,79.18
2022-09-28T19:59:31.719Z,79.23
2022-09-28T20:02:36.561Z,79.30
2022-09-28T20:05:42.347Z,79.31
2022-09-28T20:08:46.799Z,79.99
2022-09-28T20:11:52.761Z,79.90
2022-09-28T20:14:57.123Z,79.52
2022-09-28T20:18:01.526Z,79.79
2022-09-28T20:21:11.424Z,79.81
2022-09-28T20:24:18.012Z,79.20
2022-09-28T20:27:26.145Z,79.15
2022-09-28T20:30:30.795Z,78.86
2022-09-28T20:33:37.065Z,78.98
2022-09-28T20:36:45.534Z,79.25
2022-09-28T20:39:50.248Z,79.41
2022-09-28T20:42:54.565Z,79.78
2022-09-28T20:46:00.038Z,79.51
2022-09-28T20:49:05.647Z,78.87
2022-09-28T20:52:10.268Z,78.38
2022-09-28T20:55:14.924Z,78.06
2022-09-28T20:58:19.533Z,77.46
2022-09-28T21:01:30.829Z,76.90
2022-09-28T21:04:35.415Z,76.71
2022-09-28T21:07:40.085Z,78.87
2022-09-28T21:10:45.859Z,80.62
2022-09-28T21:13:56.604Z,80.46
2022-09-28T21:17:00.914Z,80.46
2022-09-28T21:20:05.987Z,80.71
2022-09-28T21:23:10.436Z,79.23
2022-09-28T21:26:25.644Z,80.40
2022-09-28T21:29:30.125Z,81.42
2022-09-28T21:32:38.421Z,80.64
2022-09-28T21:35:45.029Z,82.67
2022-09-28T21:38:50.198Z,82.23
2022-09-28T21:41:54.665Z,81.71
2022-09-28T21:45:01.364Z,82.27
2022-09-28T21:48:06.967Z,81.88
2022-09-28T21:51:15.385Z,81.95
2022-09-28T21:54:19.791Z,81.69
2022-09-28T21:57:24.622Z,81.46
2022-09-28T22:00:29.229Z,80.74
2022-09-28T22:03:36.299Z,79.90
2022-09-28T22:06:44.036Z,78.67
2022-09-28T22:09:52.778Z,76.22
2022-09-28T22:12:58.204Z,72.84
2022-09-28T22:16:03.127Z,73.23
2022-09-28T22:19:07.646Z,70.50
2022-09-28T22:22:12.095Z,72.12
2022-09-28T22:25:16.828Z,73.95
2022-09-28T22:28:21.412Z,75.51
2022-09-28T22:31:29.974Z,75.96
2022-09-28T22:34:35.188Z,76.19
2022-09-28T22:37:40.114Z,75.44
2022-09-28T22:40:53.170Z,74.53
2022-09-28T22:44:00.932Z,71.96
2022-09-28T22:47:05.784Z,71.44
2022-09-28T22:50:10.567Z,71.28
2022-09-28T22:53:15.930Z,71.76
2022-09-28T22:56:20.432Z,70.26
2022-09-28T22:59:25.164Z,70.60
2022-09-28T23:02:29.611Z,70.16
2022-09-28T23:05:34.588Z,69.67
2022-09-28T23:08:39.217Z,67.62
2022-09-28T23:11:43.539Z,67.38
2022-09-28T23:14:48.059Z,66.22
2022-09-28T23:17:56.142Z,65.50
2022-09-28T23:21:02.875Z,66.02
2022-09-28T23:24:08.567Z,64.61
2022-09-28T23:27:12.719Z,60.09
2022-09-28T23:30:19.771Z,62.47
2022-09-28T23:33:24.498Z,61.50
2022-09-28T23:36:33.489Z,62.41
2022-09-28T23:39:41.200Z,61.20
2022-09-28T23:42:45.921Z,59.37
2022-09-28T23:45:50.494Z,60.14
2022-09-28T23:48:54.980Z,60.02
2022-09-28T23:51:59.792Z,58.46
2022-09-28T23:55:04.926Z,58.29
2022-09-28T23:58:09.650Z,57.93
